sensor_id;sensor_type;location;lat;lon;timestamp;pressure;altitude;pressure_sealevel;temperature
12854;BMP180;6495;51.808;7.478;2022-10-16T00:01:29;100608.00;;;14.70
12854;BMP180;6495;51.808;7.478;2022-10-16T00:03:59;100619.00;;;14.70
12854;BMP180;6495;51.808;7.478;2022-10-16T00:06:30;100615.00;;;14.80
12854;BMP180;6495;51.808;7.478;2022-10-16T00:08:58;100606.00;;;14.80
12854;BMP180;6495;51.808;7.478;2022-10-16T00:11:29;100606.00;;;14.80
12854;BMP180;6495;51.808;7.478;2022-10-16T00:14:02;100607.00;;;14.80
12854;BMP180;6495;51.808;7.478;2022-10-16T00:16:30;100600.00;;;14.80
12854;BMP180;6495;51.808;7.478;2022-10-16T00:18:59;100613.00;;;14.80
12854;BMP180;6495;51.808;7.478;2022-10-16T00:21:30;100608.00;;;14.80
12854;BMP180;6495;51.808;7.478;2022-10-16T00:24:01;100597.00;;;14.80
12854;BMP180;6495;51.808;7.478;2022-10-16T00:26:34;100605.00;;;14.80
12854;BMP180;6495;51.808;7.478;2022-10-16T00:29:03;100604.00;;;14.80
12854;BMP180;6495;51.808;7.478;2022-10-16T00:31:32;100608.00;;;14.80
12854;BMP180;6495;51.808;7.478;2022-10-16T00:34:00;100610.00;;;14.80
12854;BMP180;6495;51.808;7.478;2022-10-16T00:36:30;100602.00;;;14.70
12854;BMP180;6495;51.808;7.478;2022-10-16T00:38:58;100607.00;;;14.70
12854;BMP180;6495;51.808;7.478;2022-10-16T00:41:28;100616.00;;;14.80
12854;BMP180;6495;51.808;7.478;2022-10-16T00:43:58;100613.00;;;14.80
12854;BMP180;6495;51.808;7.478;2022-10-16T00:46:33;100611.00;;;14.80
12854;BMP180;6495;51.808;7.478;2022-10-16T00:49:07;100625.00;;;14.70
12854;BMP180;6495;51.808;7.478;2022-10-16T00:51:40;100627.00;;;14.70
12854;BMP180;6495;51.808;7.478;2022-10-16T00:54:13;100627.00;;;14.70
12854;BMP180;6495;51.808;7.478;2022-10-16T00:56:43;100631.00;;;14.70
12854;BMP180;6495;51.808;7.478;2022-10-16T00:59:18;100621.00;;;14.70
12854;BMP180;6495;51.808;7.478;2022-10-16T01:01:46;100621.00;;;14.70
12854;BMP180;6495;51.808;7.478;2022-10-16T01:04:14;100609.00;;;14.70
12854;BMP180;6495;51.808;7.478;2022-10-16T01:06:56;100613.00;;;14.70
12854;BMP180;6495;51.808;7.478;2022-10-16T01:09:35;100614.00;;;14.70
12854;BMP180;6495;51.808;7.478;2022-10-16T01:12:11;100618.00;;;14.70
12854;BMP180;6495;51.808;7.478;2022-10-16T01:14:48;100621.00;;;14.70
12854;BMP180;6495;51.808;7.478;2022-10-16T01:17:23;100616.00;;;14.70
12854;BMP180;6495;51.808;7.478;2022-10-16T01:20:10;100626.00;;;14.70
12854;BMP180;6495;51.808;7.478;2022-10-16T01:26:24;100623.00;;;14.60
12854;BMP180;6495;51.808;7.478;2022-10-16T01:29:03;100613.00;;;14.50
12854;BMP180;6495;51.808;7.478;2022-10-16T01:31:36;100623.00;;;14.50
12854;BMP180;6495;51.808;7.478;2022-10-16T01:34:13;100620.00;;;14.50
12854;BMP180;6495;51.808;7.478;2022-10-16T01:36:49;100620.00;;;14.50
12854;BMP180;6495;51.808;7.478;2022-10-16T01:39:22;100618.00;;;14.40
12854;BMP180;6495;51.808;7.478;2022-10-16T01:41:59;100624.00;;;14.40
12854;BMP180;6495;51.808;7.478;2022-10-16T01:44:33;100630.00;;;14.40
12854;BMP180;6495;51.808;7.478;2022-10-16T01:47:04;100621.00;;;14.40
12854;BMP180;6495;51.808;7.478;2022-10-16T01:49:36;100617.00;;;14.40
12854;BMP180;6495;51.808;7.478;2022-10-16T01:52:09;100607.00;;;14.30
12854;BMP180;6495;51.808;7.478;2022-10-16T01:54:43;100604.00;;;14.30
12854;BMP180;6495;51.808;7.478;2022-10-16T01:57:14;100601.00;;;14.20
12854;BMP180;6495;51.808;7.478;2022-10-16T01:59:48;100609.00;;;14.20
12854;BMP180;6495;51.808;7.478;2022-10-16T02:02:22;100616.00;;;14.20
12854;BMP180;6495;51.808;7.478;2022-10-16T02:05:03;100610.00;;;14.20
12854;BMP180;6495;51.808;7.478;2022-10-16T02:07:32;100614.00;;;14.20
12854;BMP180;6495;51.808;7.478;2022-10-16T02:10:00;100594.00;;;14.20
12854;BMP180;6495;51.808;7.478;2022-10-16T02:12:33;100600.00;;;14.20
12854;BMP180;6495;51.808;7.478;2022-10-16T02:15:03;100603.00;;;14.10
12854;BMP180;6495;51.808;7.478;2022-10-16T02:17:32;100608.00;;;14.10
12854;BMP180;6495;51.808;7.478;2022-10-16T02:20:00;100617.00;;;14.10
12854;BMP180;6495;51.808;7.478;2022-10-16T02:22:33;100604.00;;;14.00
12854;BMP180;6495;51.808;7.478;2022-10-16T02:25:08;100617.00;;;14.00
12854;BMP180;6495;51.808;7.478;2022-10-16T02:27:45;100622.00;;;14.00
12854;BMP180;6495;51.808;7.478;2022-10-16T02:30:21;100629.00;;;14.00
12854;BMP180;6495;51.808;7.478;2022-10-16T02:32:51;100620.00;;;14.00
12854;BMP180;6495;51.808;7.478;2022-10-16T02:35:22;100622.00;;;14.00
12854;BMP180;6495;51.808;7.478;2022-10-16T02:37:52;100635.00;;;13.90
12854;BMP180;6495;51.808;7.478;2022-10-16T02:40:21;100628.00;;;13.90
12854;BMP180;6495;51.808;7.478;2022-10-16T02:42:53;100631.00;;;13.90
12854;BMP180;6495;51.808;7.478;2022-10-16T02:45:24;100617.00;;;13.90
12854;BMP180;6495;51.808;7.478;2022-10-16T02:47:52;100626.00;;;13.90
12854;BMP180;6495;51.808;7.478;2022-10-16T02:50:20;100630.00;;;13.80
12854;BMP180;6495;51.808;7.478;2022-10-16T02:52:48;100626.00;;;13.80
12854;BMP180;6495;51.808;7.478;2022-10-16T02:55:16;100617.00;;;13.80
12854;BMP180;6495;51.808;7.478;2022-10-16T02:57:44;100629.00;;;13.80
12854;BMP180;6495;51.808;7.478;2022-10-16T03:00:15;100623.00;;;13.80
12854;BMP180;6495;51.808;7.478;2022-10-16T03:02:45;100626.00;;;13.80
12854;BMP180;6495;51.808;7.478;2022-10-16T03:05:14;100617.00;;;13.80
12854;BMP180;6495;51.808;7.478;2022-10-16T03:07:42;100609.00;;;13.70
12854;BMP180;6495;51.808;7.478;2022-10-16T03:10:10;100623.00;;;13.70
12854;BMP180;6495;51.808;7.478;2022-10-16T03:12:38;100608.00;;;13.70
12854;BMP180;6495;51.808;7.478;2022-10-16T03:15:07;100604.00;;;13.70
12854;BMP180;6495;51.808;7.478;2022-10-16T03:17:36;100618.00;;;13.80
12854;BMP180;6495;51.808;7.478;2022-10-16T03:20:06;100625.00;;;13.80
12854;BMP180;6495;51.808;7.478;2022-10-16T03:22:35;100623.00;;;13.80
12854;BMP180;6495;51.808;7.478;2022-10-16T03:25:03;100623.00;;;13.80
12854;BMP180;6495;51.808;7.478;2022-10-16T03:27:32;100641.00;;;13.80
12854;BMP180;6495;51.808;7.478;2022-10-16T03:30:00;100630.00;;;13.80
12854;BMP180;6495;51.808;7.478;2022-10-16T03:32:28;100629.00;;;13.80
12854;BMP180;6495;51.808;7.478;2022-10-16T03:34:56;100619.00;;;13.80
12854;BMP180;6495;51.808;7.478;2022-10-16T03:37:25;100610.00;;;13.80
12854;BMP180;6495;51.808;7.478;2022-10-16T03:39:54;100620.00;;;13.80
12854;BMP180;6495;51.808;7.478;2022-10-16T03:42:21;100617.00;;;13.80
12854;BMP180;6495;51.808;7.478;2022-10-16T03:44:51;100619.00;;;13.80
12854;BMP180;6495;51.808;7.478;2022-10-16T03:47:19;100614.00;;;13.70
12854;BMP180;6495;51.808;7.478;2022-10-16T03:49:48;100611.00;;;13.70
12854;BMP180;6495;51.808;7.478;2022-10-16T03:52:16;100616.00;;;13.70
12854;BMP180;6495;51.808;7.478;2022-10-16T03:54:51;100624.00;;;13.70
12854;BMP180;6495;51.808;7.478;2022-10-16T03:57:19;100616.00;;;13.80
12854;BMP180;6495;51.808;7.478;2022-10-16T03:59:47;100608.00;;;13.70
12854;BMP180;6495;51.808;7.478;2022-10-16T04:02:15;100616.00;;;13.70
12854;BMP180;6495;51.808;7.478;2022-10-16T04:04:43;100625.00;;;13.70
12854;BMP180;6495;51.808;7.478;2022-10-16T04:07:11;100627.00;;;13.80
12854;BMP180;6495;51.808;7.478;2022-10-16T04:09:39;100629.00;;;13.80
12854;BMP180;6495;51.808;7.478;2022-10-16T04:12:08;100637.00;;;13.80
12854;BMP180;6495;51.808;7.478;2022-10-16T04:14:36;100637.00;;;13.80
12854;BMP180;6495;51.808;7.478;2022-10-16T04:17:04;100643.00;;;13.80
12854;BMP180;6495;51.808;7.478;2022-10-16T04:19:32;100650.00;;;13.80
12854;BMP180;6495;51.808;7.478;2022-10-16T04:22:00;100651.00;;;13.80
12854;BMP180;6495;51.808;7.478;2022-10-16T04:24:28;100648.00;;;13.80
12854;BMP180;6495;51.808;7.478;2022-10-16T04:26:56;100639.00;;;13.70
12854;BMP180;6495;51.808;7.478;2022-10-16T04:29:25;100639.00;;;13.70
12854;BMP180;6495;51.808;7.478;2022-10-16T04:31:53;100649.00;;;13.70
12854;BMP180;6495;51.808;7.478;2022-10-16T04:34:21;100663.00;;;13.70
12854;BMP180;6495;51.808;7.478;2022-10-16T04:36:49;100662.00;;;13.70
12854;BMP180;6495;51.808;7.478;2022-10-16T04:39:17;100655.00;;;13.70
12854;BMP180;6495;51.808;7.478;2022-10-16T04:41:45;100653.00;;;13.70
12854;BMP180;6495;51.808;7.478;2022-10-16T04:44:13;100656.00;;;13.70
12854;BMP180;6495;51.808;7.478;2022-10-16T04:46:43;100656.00;;;13.70
12854;BMP180;6495;51.808;7.478;2022-10-16T04:49:11;100661.00;;;13.70
12854;BMP180;6495;51.808;7.478;2022-10-16T04:51:39;100673.00;;;13.70
12854;BMP180;6495;51.808;7.478;2022-10-16T04:54:08;100666.00;;;13.70
12854;BMP180;6495;51.808;7.478;2022-10-16T04:56:36;100666.00;;;13.70
12854;BMP180;6495;51.808;7.478;2022-10-16T04:59:10;100678.00;;;13.70
12854;BMP180;6495;51.808;7.478;2022-10-16T05:01:37;100676.00;;;13.70
12854;BMP180;6495;51.808;7.478;2022-10-16T05:04:07;100687.00;;;13.60
12854;BMP180;6495;51.808;7.478;2022-10-16T05:06:35;100687.00;;;13.60
12854;BMP180;6495;51.808;7.478;2022-10-16T05:09:05;100680.00;;;13.60
12854;BMP180;6495;51.808;7.478;2022-10-16T05:11:33;100674.00;;;13.60
12854;BMP180;6495;51.808;7.478;2022-10-16T05:14:02;100672.00;;;13.70
12854;BMP180;6495;51.808;7.478;2022-10-16T05:16:30;100679.00;;;13.70
12854;BMP180;6495;51.808;7.478;2022-10-16T05:18:58;100684.00;;;13.70
12854;BMP180;6495;51.808;7.478;2022-10-16T05:21:47;100685.00;;;13.70
12854;BMP180;6495;51.808;7.478;2022-10-16T05:24:15;100685.00;;;13.70
12854;BMP180;6495;51.808;7.478;2022-10-16T05:26:43;100704.00;;;13.70
12854;BMP180;6495;51.808;7.478;2022-10-16T05:29:11;100704.00;;;13.70
12854;BMP180;6495;51.808;7.478;2022-10-16T05:31:39;100707.00;;;13.70
12854;BMP180;6495;51.808;7.478;2022-10-16T05:34:07;100708.00;;;13.70
12854;BMP180;6495;51.808;7.478;2022-10-16T05:36:35;100712.00;;;13.70
12854;BMP180;6495;51.808;7.478;2022-10-16T05:39:05;100714.00;;;13.60
12854;BMP180;6495;51.808;7.478;2022-10-16T05:41:33;100722.00;;;13.60
12854;BMP180;6495;51.808;7.478;2022-10-16T05:44:04;100718.00;;;13.70
12854;BMP180;6495;51.808;7.478;2022-10-16T05:46:33;100715.00;;;13.70
12854;BMP180;6495;51.808;7.478;2022-10-16T05:49:01;100726.00;;;13.70
12854;BMP180;6495;51.808;7.478;2022-10-16T05:51:29;100721.00;;;13.70
12854;BMP180;6495;51.808;7.478;2022-10-16T05:53:57;100734.00;;;13.70
12854;BMP180;6495;51.808;7.478;2022-10-16T05:56:26;100737.00;;;13.70
12854;BMP180;6495;51.808;7.478;2022-10-16T05:58:54;100730.00;;;13.70
12854;BMP180;6495;51.808;7.478;2022-10-16T06:01:22;100734.00;;;13.70
12854;BMP180;6495;51.808;7.478;2022-10-16T06:03:52;100727.00;;;13.70
12854;BMP180;6495;51.808;7.478;2022-10-16T06:06:22;100738.00;;;13.70
12854;BMP180;6495;51.808;7.478;2022-10-16T06:08:54;100737.00;;;13.70
12854;BMP180;6495;51.808;7.478;2022-10-16T06:11:26;100731.00;;;13.70
12854;BMP180;6495;51.808;7.478;2022-10-16T06:13:56;100740.00;;;13.70
12854;BMP180;6495;51.808;7.478;2022-10-16T06:16:26;100745.00;;;13.70
12854;BMP180;6495;51.808;7.478;2022-10-16T06:18:55;100759.00;;;13.70
12854;BMP180;6495;51.808;7.478;2022-10-16T06:21:25;100760.00;;;13.80
12854;BMP180;6495;51.808;7.478;2022-10-16T06:23:55;100771.00;;;13.70
12854;BMP180;6495;51.808;7.478;2022-10-16T06:26:26;100765.00;;;13.80
12854;BMP180;6495;51.808;7.478;2022-10-16T06:28:55;100778.00;;;13.80
12854;BMP180;6495;51.808;7.478;2022-10-16T06:31:26;100780.00;;;13.80
12854;BMP180;6495;51.808;7.478;2022-10-16T06:33:57;100789.00;;;13.90
12854;BMP180;6495;51.808;7.478;2022-10-16T06:36:26;100795.00;;;13.90
12854;BMP180;6495;51.808;7.478;2022-10-16T06:38:54;100785.00;;;13.80
12854;BMP180;6495;51.808;7.478;2022-10-16T06:41:23;100795.00;;;13.90
12854;BMP180;6495;51.808;7.478;2022-10-16T06:43:52;100796.00;;;13.90
12854;BMP180;6495;51.808;7.478;2022-10-16T06:46:23;100799.00;;;13.90
12854;BMP180;6495;51.808;7.478;2022-10-16T06:48:52;100802.00;;;13.90
12854;BMP180;6495;51.808;7.478;2022-10-16T06:51:23;100802.00;;;13.90
12854;BMP180;6495;51.808;7.478;2022-10-16T06:53:54;100806.00;;;13.90
12854;BMP180;6495;51.808;7.478;2022-10-16T06:56:32;100820.00;;;13.90
12854;BMP180;6495;51.808;7.478;2022-10-16T06:59:02;100808.00;;;14.00
12854;BMP180;6495;51.808;7.478;2022-10-16T07:01:31;100809.00;;;14.00
12854;BMP180;6495;51.808;7.478;2022-10-16T07:04:00;100832.00;;;14.10
12854;BMP180;6495;51.808;7.478;2022-10-16T07:06:33;100834.00;;;14.10
12854;BMP180;6495;51.808;7.478;2022-10-16T07:09:04;100844.00;;;14.10
12854;BMP180;6495;51.808;7.478;2022-10-16T07:11:33;100856.00;;;14.20
12854;BMP180;6495;51.808;7.478;2022-10-16T07:14:03;100857.00;;;14.20
12854;BMP180;6495;51.808;7.478;2022-10-16T07:16:32;100859.00;;;14.20
12854;BMP180;6495;51.808;7.478;2022-10-16T07:19:02;100867.00;;;14.20
12854;BMP180;6495;51.808;7.478;2022-10-16T07:21:33;100878.00;;;14.20
12854;BMP180;6495;51.808;7.478;2022-10-16T07:24:06;100884.00;;;14.20
12854;BMP180;6495;51.808;7.478;2022-10-16T07:26:36;100891.00;;;14.20
12854;BMP180;6495;51.808;7.478;2022-10-16T07:29:11;100889.00;;;14.20
12854;BMP180;6495;51.808;7.478;2022-10-16T07:31:40;100890.00;;;14.20
12854;BMP180;6495;51.808;7.478;2022-10-16T07:34:09;100898.00;;;14.30
12854;BMP180;6495;51.808;7.478;2022-10-16T07:36:38;100900.00;;;14.30
12854;BMP180;6495;51.808;7.478;2022-10-16T07:39:06;100908.00;;;14.30
12854;BMP180;6495;51.808;7.478;2022-10-16T07:41:34;100903.00;;;14.40
12854;BMP180;6495;51.808;7.478;2022-10-16T07:44:04;100909.00;;;14.40
12854;BMP180;6495;51.808;7.478;2022-10-16T07:46:35;100908.00;;;14.50
12854;BMP180;6495;51.808;7.478;2022-10-16T07:49:03;100907.00;;;14.60
12854;BMP180;6495;51.808;7.478;2022-10-16T07:51:31;100912.00;;;14.80
12854;BMP180;6495;51.808;7.478;2022-10-16T07:53:59;100912.00;;;14.90
12854;BMP180;6495;51.808;7.478;2022-10-16T07:56:30;100937.00;;;15.00
12854;BMP180;6495;51.808;7.478;2022-10-16T07:58:58;100941.00;;;15.20
12854;BMP180;6495;51.808;7.478;2022-10-16T08:01:26;100945.00;;;15.30
12854;BMP180;6495;51.808;7.478;2022-10-16T08:03:56;100949.00;;;15.50
12854;BMP180;6495;51.808;7.478;2022-10-16T08:06:24;100952.00;;;15.60
12854;BMP180;6495;51.808;7.478;2022-10-16T08:08:54;100954.00;;;15.80
12854;BMP180;6495;51.808;7.478;2022-10-16T08:11:23;100954.00;;;15.90
12854;BMP180;6495;51.808;7.478;2022-10-16T08:13:51;100964.00;;;16.00
12854;BMP180;6495;51.808;7.478;2022-10-16T08:16:19;100964.00;;;16.20
12854;BMP180;6495;51.808;7.478;2022-10-16T08:18:47;100969.00;;;16.30
12854;BMP180;6495;51.808;7.478;2022-10-16T08:21:19;100975.00;;;16.50
12854;BMP180;6495;51.808;7.478;2022-10-16T08:23:48;100976.00;;;16.60
12854;BMP180;6495;51.808;7.478;2022-10-16T08:26:23;100982.00;;;16.70
12854;BMP180;6495;51.808;7.478;2022-10-16T08:28:51;100971.00;;;16.80
12854;BMP180;6495;51.808;7.478;2022-10-16T08:31:20;100990.00;;;16.90
12854;BMP180;6495;51.808;7.478;2022-10-16T08:33:48;100984.00;;;17.00
12854;BMP180;6495;51.808;7.478;2022-10-16T08:36:18;100985.00;;;17.10
12854;BMP180;6495;51.808;7.478;2022-10-16T08:38:48;101000.00;;;17.20
12854;BMP180;6495;51.808;7.478;2022-10-16T08:42:07;100996.00;;;17.30
12854;BMP180;6495;51.808;7.478;2022-10-16T08:45:25;101007.00;;;17.40
12854;BMP180;6495;51.808;7.478;2022-10-16T08:48:15;101014.00;;;17.40
12854;BMP180;6495;51.808;7.478;2022-10-16T08:50:47;101012.00;;;17.50
12854;BMP180;6495;51.808;7.478;2022-10-16T08:53:24;101016.00;;;17.60
12854;BMP180;6495;51.808;7.478;2022-10-16T08:55:53;101022.00;;;17.70
12854;BMP180;6495;51.808;7.478;2022-10-16T08:58:26;101020.00;;;17.90
12854;BMP180;6495;51.808;7.478;2022-10-16T09:00:57;101021.00;;;17.90
12854;BMP180;6495;51.808;7.478;2022-10-16T09:04:00;101023.00;;;18.10
12854;BMP180;6495;51.808;7.478;2022-10-16T09:06:43;101035.00;;;18.10
12854;BMP180;6495;51.808;7.478;2022-10-16T09:12:35;101044.00;;;18.30
12854;BMP180;6495;51.808;7.478;2022-10-16T09:15:20;101041.00;;;18.40
12854;BMP180;6495;51.808;7.478;2022-10-16T09:18:01;101046.00;;;18.50
12854;BMP180;6495;51.808;7.478;2022-10-16T09:20:44;101054.00;;;18.50
12854;BMP180;6495;51.808;7.478;2022-10-16T09:23:19;101063.00;;;18.60
12854;BMP180;6495;51.808;7.478;2022-10-16T09:25:50;101059.00;;;18.70
12854;BMP180;6495;51.808;7.478;2022-10-16T09:28:20;101061.00;;;18.80
12854;BMP180;6495;51.808;7.478;2022-10-16T09:30:48;101061.00;;;18.90
12854;BMP180;6495;51.808;7.478;2022-10-16T09:33:20;101061.00;;;19.00
12854;BMP180;6495;51.808;7.478;2022-10-16T09:35:53;101053.00;;;19.00
12854;BMP180;6495;51.808;7.478;2022-10-16T09:38:25;101057.00;;;18.90
12854;BMP180;6495;51.808;7.478;2022-10-16T09:40:55;101062.00;;;19.00
12854;BMP180;6495;51.808;7.478;2022-10-16T09:43:35;101067.00;;;19.00
12854;BMP180;6495;51.808;7.478;2022-10-16T09:46:19;101058.00;;;19.00
12854;BMP180;6495;51.808;7.478;2022-10-16T09:48:51;101065.00;;;19.10
12854;BMP180;6495;51.808;7.478;2022-10-16T09:51:25;101071.00;;;19.20
12854;BMP180;6495;51.808;7.478;2022-10-16T09:53:57;101073.00;;;19.30
12854;BMP180;6495;51.808;7.478;2022-10-16T09:56:28;101076.00;;;19.40
12854;BMP180;6495;51.808;7.478;2022-10-16T09:59:00;101072.00;;;19.50
12854;BMP180;6495;51.808;7.478;2022-10-16T10:01:36;101083.00;;;19.50
12854;BMP180;6495;51.808;7.478;2022-10-16T10:04:05;101076.00;;;19.50
12854;BMP180;6495;51.808;7.478;2022-10-16T10:06:36;101079.00;;;19.60
12854;BMP180;6495;51.808;7.478;2022-10-16T10:09:17;101091.00;;;19.60
12854;BMP180;6495;51.808;7.478;2022-10-16T10:11:54;101089.00;;;19.70
12854;BMP180;6495;51.808;7.478;2022-10-16T10:14:31;101099.00;;;19.80
12854;BMP180;6495;51.808;7.478;2022-10-16T10:17:13;101093.00;;;19.80
12854;BMP180;6495;51.808;7.478;2022-10-16T10:19:49;101095.00;;;19.90
12854;BMP180;6495;51.808;7.478;2022-10-16T10:22:29;101102.00;;;20.00
12854;BMP180;6495;51.808;7.478;2022-10-16T10:25:15;101101.00;;;20.10
12854;BMP180;6495;51.808;7.478;2022-10-16T10:28:09;101103.00;;;20.20
12854;BMP180;6495;51.808;7.478;2022-10-16T10:30:53;101112.00;;;20.30
12854;BMP180;6495;51.808;7.478;2022-10-16T10:33:31;101110.00;;;20.50
12854;BMP180;6495;51.808;7.478;2022-10-16T10:36:39;101112.00;;;20.70
12854;BMP180;6495;51.808;7.478;2022-10-16T10:39:15;101119.00;;;20.70
12854;BMP180;6495;51.808;7.478;2022-10-16T10:42:10;101112.00;;;20.80
12854;BMP180;6495;51.808;7.478;2022-10-16T10:45:13;101116.00;;;20.80
12854;BMP180;6495;51.808;7.478;2022-10-16T10:47:57;101106.00;;;20.90
12854;BMP180;6495;51.808;7.478;2022-10-16T10:50:37;101118.00;;;20.90
12854;BMP180;6495;51.808;7.478;2022-10-16T10:53:25;101121.00;;;21.00
12854;BMP180;6495;51.808;7.478;2022-10-16T10:56:15;101123.00;;;21.00
12854;BMP180;6495;51.808;7.478;2022-10-16T10:59:23;101120.00;;;21.00
12854;BMP180;6495;51.808;7.478;2022-10-16T11:02:00;101127.00;;;21.00
12854;BMP180;6495;51.808;7.478;2022-10-16T11:05:18;101130.00;;;21.10
12854;BMP180;6495;51.808;7.478;2022-10-16T11:07:54;101126.00;;;21.10
12854;BMP180;6495;51.808;7.478;2022-10-16T11:10:30;101133.00;;;21.10
12854;BMP180;6495;51.808;7.478;2022-10-16T11:13:10;101136.00;;;21.10
12854;BMP180;6495;51.808;7.478;2022-10-16T11:15:47;101128.00;;;21.20
12854;BMP180;6495;51.808;7.478;2022-10-16T11:18:24;101130.00;;;21.00
12854;BMP180;6495;51.808;7.478;2022-10-16T11:21:00;101125.00;;;20.90
12854;BMP180;6495;51.808;7.478;2022-10-16T11:23:37;101128.00;;;21.00
12854;BMP180;6495;51.808;7.478;2022-10-16T11:26:14;101135.00;;;21.10
12854;BMP180;6495;51.808;7.478;2022-10-16T11:28:48;101127.00;;;21.20
12854;BMP180;6495;51.808;7.478;2022-10-16T11:31:26;101129.00;;;21.40
12854;BMP180;6495;51.808;7.478;2022-10-16T11:34:06;101134.00;;;21.30
12854;BMP180;6495;51.808;7.478;2022-10-16T11:36:48;101141.00;;;21.30
12854;BMP180;6495;51.808;7.478;2022-10-16T11:39:21;101142.00;;;21.20
12854;BMP180;6495;51.808;7.478;2022-10-16T11:41:54;101141.00;;;21.10
12854;BMP180;6495;51.808;7.478;2022-10-16T11:44:44;101141.00;;;21.00
12854;BMP180;6495;51.808;7.478;2022-10-16T11:47:27;101138.00;;;20.90
12854;BMP180;6495;51.808;7.478;2022-10-16T11:50:26;101145.00;;;20.80
12854;BMP180;6495;51.808;7.478;2022-10-16T11:53:04;101155.00;;;20.80
12854;BMP180;6495;51.808;7.478;2022-10-16T11:55:40;101148.00;;;20.80
12854;BMP180;6495;51.808;7.478;2022-10-16T11:58:24;101147.00;;;20.80
12854;BMP180;6495;51.808;7.478;2022-10-16T12:01:04;101140.00;;;20.70
12854;BMP180;6495;51.808;7.478;2022-10-16T12:03:43;101147.00;;;20.70
12854;BMP180;6495;51.808;7.478;2022-10-16T12:06:31;101147.00;;;20.60
12854;BMP180;6495;51.808;7.478;2022-10-16T12:09:03;101139.00;;;20.50
12854;BMP180;6495;51.808;7.478;2022-10-16T12:11:37;101150.00;;;20.50
12854;BMP180;6495;51.808;7.478;2022-10-16T12:14:37;101158.00;;;20.60
12854;BMP180;6495;51.808;7.478;2022-10-16T12:17:34;101155.00;;;20.60
12854;BMP180;6495;51.808;7.478;2022-10-16T12:20:28;101158.00;;;20.60
12854;BMP180;6495;51.808;7.478;2022-10-16T12:23:01;101163.00;;;20.50
12854;BMP180;6495;51.808;7.478;2022-10-16T12:25:33;101160.00;;;20.50
12854;BMP180;6495;51.808;7.478;2022-10-16T12:28:05;101164.00;;;20.50
12854;BMP180;6495;51.808;7.478;2022-10-16T12:30:36;101162.00;;;20.40
12854;BMP180;6495;51.808;7.478;2022-10-16T12:33:19;101165.00;;;20.40
12854;BMP180;6495;51.808;7.478;2022-10-16T12:35:48;101167.00;;;20.40
12854;BMP180;6495;51.808;7.478;2022-10-16T12:38:19;101171.00;;;20.40
12854;BMP180;6495;51.808;7.478;2022-10-16T12:40:58;101168.00;;;20.40
12854;BMP180;6495;51.808;7.478;2022-10-16T12:43:40;101173.00;;;20.40
12854;BMP180;6495;51.808;7.478;2022-10-16T12:46:35;101171.00;;;20.40
12854;BMP180;6495;51.808;7.478;2022-10-16T12:49:21;101176.00;;;20.40
12854;BMP180;6495;51.808;7.478;2022-10-16T12:51:51;101177.00;;;20.40
12854;BMP180;6495;51.808;7.478;2022-10-16T12:54:23;101174.00;;;20.40
12854;BMP180;6495;51.808;7.478;2022-10-16T12:57:18;101186.00;;;20.40
12854;BMP180;6495;51.808;7.478;2022-10-16T12:59:57;101176.00;;;20.30
12854;BMP180;6495;51.808;7.478;2022-10-16T13:03:01;101175.00;;;20.40
12854;BMP180;6495;51.808;7.478;2022-10-16T13:05:54;101177.00;;;20.40
12854;BMP180;6495;51.808;7.478;2022-10-16T13:08:44;101176.00;;;20.40
12854;BMP180;6495;51.808;7.478;2022-10-16T13:11:29;101185.00;;;20.30
12854;BMP180;6495;51.808;7.478;2022-10-16T13:14:21;101190.00;;;20.30
12854;BMP180;6495;51.808;7.478;2022-10-16T13:17:06;101187.00;;;20.30
12854;BMP180;6495;51.808;7.478;2022-10-16T13:19:46;101185.00;;;20.30
12854;BMP180;6495;51.808;7.478;2022-10-16T13:22:27;101177.00;;;20.30
12854;BMP180;6495;51.808;7.478;2022-10-16T13:25:18;101179.00;;;20.40
12854;BMP180;6495;51.808;7.478;2022-10-16T13:27:56;101179.00;;;20.40
12854;BMP180;6495;51.808;7.478;2022-10-16T13:30:28;101183.00;;;20.30
12854;BMP180;6495;51.808;7.478;2022-10-16T13:33:01;101182.00;;;20.30
12854;BMP180;6495;51.808;7.478;2022-10-16T13:35:33;101181.00;;;20.40
12854;BMP180;6495;51.808;7.478;2022-10-16T13:38:13;101174.00;;;20.40
12854;BMP180;6495;51.808;7.478;2022-10-16T13:40:55;101190.00;;;20.40
12854;BMP180;6495;51.808;7.478;2022-10-16T13:43:32;101184.00;;;20.40
12854;BMP180;6495;51.808;7.478;2022-10-16T13:46:05;101192.00;;;20.40
12854;BMP180;6495;51.808;7.478;2022-10-16T13:48:34;101202.00;;;20.30
12854;BMP180;6495;51.808;7.478;2022-10-16T13:51:12;101210.00;;;20.30
12854;BMP180;6495;51.808;7.478;2022-10-16T13:53:41;101209.00;;;20.30
12854;BMP180;6495;51.808;7.478;2022-10-16T13:56:13;101200.00;;;20.30
12854;BMP180;6495;51.808;7.478;2022-10-16T13:58:42;101207.00;;;20.30
12854;BMP180;6495;51.808;7.478;2022-10-16T14:01:20;101203.00;;;20.30
12854;BMP180;6495;51.808;7.478;2022-10-16T14:03:51;101203.00;;;20.30
12854;BMP180;6495;51.808;7.478;2022-10-16T14:06:21;101209.00;;;20.30
12854;BMP180;6495;51.808;7.478;2022-10-16T14:08:59;101198.00;;;20.40
12854;BMP180;6495;51.808;7.478;2022-10-16T14:11:28;101206.00;;;20.40
12854;BMP180;6495;51.808;7.478;2022-10-16T14:13:57;101209.00;;;20.40
12854;BMP180;6495;51.808;7.478;2022-10-16T14:16:30;101214.00;;;20.30
12854;BMP180;6495;51.808;7.478;2022-10-16T14:19:02;101207.00;;;20.30
12854;BMP180;6495;51.808;7.478;2022-10-16T14:21:34;101207.00;;;20.30
12854;BMP180;6495;51.808;7.478;2022-10-16T14:24:11;101205.00;;;20.30
12854;BMP180;6495;51.808;7.478;2022-10-16T14:26:42;101205.00;;;20.30
12854;BMP180;6495;51.808;7.478;2022-10-16T14:29:19;101205.00;;;20.30
12854;BMP180;6495;51.808;7.478;2022-10-16T14:31:57;101210.00;;;20.40
12854;BMP180;6495;51.808;7.478;2022-10-16T14:34:31;101202.00;;;20.30
12854;BMP180;6495;51.808;7.478;2022-10-16T14:37:06;101206.00;;;20.40
12854;BMP180;6495;51.808;7.478;2022-10-16T14:39:36;101211.00;;;20.40
12854;BMP180;6495;51.808;7.478;2022-10-16T14:42:04;101210.00;;;20.40
12854;BMP180;6495;51.808;7.478;2022-10-16T14:44:33;101208.00;;;20.40
12854;BMP180;6495;51.808;7.478;2022-10-16T14:47:14;101226.00;;;20.30
12854;BMP180;6495;51.808;7.478;2022-10-16T14:49:43;101217.00;;;20.30
12854;BMP180;6495;51.808;7.478;2022-10-16T14:52:12;101229.00;;;20.30
12854;BMP180;6495;51.808;7.478;2022-10-16T14:54:41;101228.00;;;20.30